Hovedside
METAR-TAF:

METAR-TAF

Lufthavner :

Ängelholm-Helsingborg lufthavn

Helsingborg, Sverige

breddegrad: 56-17-46N, lengdegrad: 012-50-50E, høyde over havet: 21 m

Gjeldene værobservasjon

Denne rapporten ble laget for 23 minutter siden, klokken 06:20 UTC
Vind 12 kt fra Øst-sørøst
Temperatur 5°C
Luftfuktighet 87%
Trykk 1016 hPa
Sikt 10 km eller mer
Få skyer i en høyde av 1500 ft

METAR: ESTA 150620Z 11012KT 9999 FEW015 05/03 Q1016

Tid: 07:43 (06:43 UTC)

Varsel

Denne rapporten ble laget for 1 time og 41 minutter siden, klokken 05:02 UTC
Varsel gyldig fra 15. klokken 06 UTC til 15. klokken 15 UTC
Vind 10 kt fra Øst
Sikt 10 km eller mer
Brutte skyer i en høyde av 2000 ft
Midlertidig
fra 15. klokken 06 UTC til 15. klokken 08 UTC
Brutte skyer i en høyde av 800 ft
Midlertidig
fra 15. klokken 11 UTC til 15. klokken 12 UTC
Vind 15 kt fra Øst med vindkast opp mot 28 kt

TAF: ESTA 150502Z 1506/1515 09010KT 9999 BKN020 TEMPO 1506/1508 BKN008 TEMPO 1511/1512 10015G28KT

Værobservasjoner og værvarsel for over 4000 flyplasser (METAR- og TAF-rapporter).

Tilgjengelige stasjoner er representert av de røde og gule prikkene på kartet.

Hold musepekeren over prikken for å se navnet på stasjonen.

Klikk så for å se værobservasjoner og -varsler.

For å forandre kartet kan du klikke på den grønne knappen med svart kryss for å zoome inn, på den grønne knappen med strek for å zoome ut, eller på de grønne pilene for å se tilstøtende kart.


METAR-TAF: